Friday, November 24, 2017, 8:15 AM EST
Back to Local

KROC, Greater Rochester International

Location: Rochester, NY, United States Lat: 43.117
Local Time: 8:15 AM EST (13:15 GMT) Lon: -77.683
Time Zone: US/Eastern Elev: 557 ft

Show me the last for .
Show Coded

Time T Td Feel RH Dir Speed Gust Alt SLP Vis Weather Sky Remarks
2017-11-24 07:54 37 26 30 64 210° 10 - 29.92 29.94 10 FEW027 SCT250 None
2017-11-24 06:54 38 28 33 67 220° 6 - 29.93 29.95 10 OVC027 6-hr Min Temp (7am): 37.9°F
6-hr Max Temp (7am): 39.0°F
2017-11-24 06:44 38 28 31 67 220° 9 - 29.92 - 10 OVC029 None
2017-11-24 05:54 38 28 32 67 210° 8 - 29.93 29.96 10 OVC033 None
2017-11-24 04:54 38 28 33 67 220° 6 - 29.94 29.96 10 OVC032 None
2017-11-24 03:54 39 30 36 69 200° 5 - 29.94 29.97 10 OVC034 None
2017-11-24 02:54 39 28 33 64 250° 9 - 29.95 29.97 10 OVC034 None
2017-11-24 01:54 38 28 33 67 230° 7 - 29.96 29.98 10 OVC040 None
2017-11-24 00:54 38 26 31 61 240° 9 - 29.96 29.98 10 BKN033 OVC050 6-hr Min Temp (1am): 36.0°F
6-hr Max Temp (1am): 37.9°F
2017-11-23 23:54 38 25 31 59 220° 9 - 29.95 29.98 10 FEW040 OVC055 24-hr Min Temp (12am): 28.9°F
24-hr Max Temp (12am): 37.9°F
2017-11-23 22:54 37 25 30 61 230° 9 - 29.95 29.97 10 OVC060 None
2017-11-23 21:54 37 25 29 61 230° 12 - 29.95 29.98 10 OVC070 None
2017-11-23 20:54 37 26 32 64 220° 7 - 29.96 29.98 10 BKN032 OVC075 None
2017-11-23 19:54 37 28 31 69 230° 8 - 29.96 29.99 10 SCT055 OVC075 None
2017-11-23 19:11 37 28 31 69 230° 8 - 29.96 - 10 OVC030 None
2017-11-23 18:54 37 28 30 69 230° 9 - 29.96 29.98 10 OVC028 6-hr Min Temp (7pm): 34.0°F
6-hr Max Temp (7pm): 37.0°F
2017-11-23 18:24 37 28 30 69 230° 10 - 29.95 - 10 OVC029 None
2017-11-23 17:54 36 28 29 72 220° 9 - 29.95 29.98 10 OVC030 None
2017-11-23 16:54 36 28 29 72 220° 9 - 29.95 29.98 10 OVC033 None
2017-11-23 16:13 35 28 29 75 220° 8 - 29.96 - 10 OVC031 None
2017-11-23 15:54 35 27 27 72 230° 10 - 29.97 30.00 10 OVC027 None
2017-11-23 14:54 35 27 28 72 220° 9 - 29.98 30.01 10 OVC025 None
2017-11-23 13:54 35 26 29 69 230° 8 - 30.00 30.03 10 BKN024 BKN029 OVC100 None
2017-11-23 12:54 34 25 25 69 230° 13 - 30.03 30.05 10 OVC028 6-hr Min Temp (1pm): 28.9°F
6-hr Max Temp (1pm): 34.0°F
2017-11-23 11:54 33 23 25 66 210° 9 - 30.05 30.08 10 OVC027 None
2017-11-23 11:44 33 23 25 66 220° 9 - 30.06 - 10 OVC029 None
2017-11-23 10:54 33 23 25 66 230° 10 - 30.09 30.12 10 OVC034 None
2017-11-23 09:54 33 23 25 66 220° 9 - 30.10 30.13 10 FEW045 BKN100 BKN140 None
2017-11-23 08:54 31 23 23 72 230° 8 - 30.13 30.16 10 FEW060 BKN110 BKN160 None

Support USWX by starting your Amazon purchase here.